Time,TemperatureF,DewpointF,PressureIn,WindDirection,WindDirectionDegrees,WindSpeedMPH,WindSpeedGustMPH,Humidity,HourlyPrecipIn,Conditions,Clouds,dailyrainin,SoftwareType,DateUTC
2013-09-20 00:00:00,74.2,72.7,29.96,East,97,0.0,3.0,95,0.04,,CLR,0.33,VWS V14.01,2013-09-20 04:00:00,
2013-09-20 00:01:00,74.6,73.4,29.96,East,97,0.0,0.0,96,0.00,,OVC110,0.00,VWS V14.01,2013-09-20 04:01:00,
2013-09-20 00:06:00,74.7,73.5,29.96,East,97,0.0,0.0,96,0.00,,OVC110,0.00,VWS V14.01,2013-09-20 04:06:00,
2013-09-20 00:12:00,74.7,73.5,29.96,East,97,0.0,0.0,96,0.00,,OVC110,0.00,VWS V14.01,2013-09-20 04:12:00,
2013-09-20 00:17:00,74.7,73.5,29.95,East,97,0.0,0.0,96,0.00,,OVC110,0.00,VWS V14.01,2013-09-20 04:17:00,
2013-09-20 00:22:00,74.9,73.7,29.95,East,97,0.0,0.0,96,0.00,,OVC110,0.00,VWS V14.01,2013-09-20 04:22:00,
2013-09-20 00:27:00,74.9,73.7,29.95,East,97,0.0,0.0,96,0.00,,OVC110,0.00,VWS V14.01,2013-09-20 04:27:00,
2013-09-20 00:30:00,74.2,72.7,29.96,East,97,0.0,1.0,95,0.04,,CLR,0.33,VWS V14.01,2013-09-20 04:30:00,
2013-09-20 00:32:00,75.1,73.9,29.96,East,97,0.0,0.0,96,0.00,,OVC110,0.00,VWS V14.01,2013-09-20 04:32:00,
2013-09-20 00:37:00,75.1,73.9,29.96,East,97,0.0,0.0,96,0.00,,OVC110,0.00,VWS V14.01,2013-09-20 04:37:00,
2013-09-20 00:42:00,75.1,73.9,29.96,East,97,0.0,0.0,96,0.00,,OVC110,0.00,VWS V14.01,2013-09-20 04:42:00,
2013-09-20 00:47:00,75.1,73.9,29.96,East,97,0.0,0.0,96,0.00,,OVC110,0.00,VWS V14.01,2013-09-20 04:47:00,
2013-09-20 00:52:00,75.1,73.9,29.96,East,97,0.0,0.0,96,0.00,,OVC110,0.00,VWS V14.01,2013-09-20 04:52:00,
2013-09-20 00:57:00,75.1,73.9,29.96,East,97,0.0,0.0,96,0.00,,OVC110,0.00,VWS V14.01,2013-09-20 04:57:00,
2013-09-20 01:00:00,74.6,73.4,29.96,East,97,0.0,0.0,96,0.00,,CLR,0.33,VWS V14.01,2013-09-20 05:00:00,
2013-09-20 01:02:00,75.1,73.9,29.95,East,97,0.0,0.0,96,0.00,,OVC090,0.00,VWS V14.01,2013-09-20 05:02:00,
2013-09-20 01:07:00,75.1,73.9,29.95,East,97,0.0,0.0,96,0.00,,OVC090,0.00,VWS V14.01,2013-09-20 05:07:00,
2013-09-20 01:12:00,75.1,73.9,29.95,East,97,0.0,0.0,96,0.00,,OVC090,0.00,VWS V14.01,2013-09-20 05:12:00,
2013-09-20 01:17:00,74.9,73.7,29.94,East,97,0.0,0.0,96,0.00,,OVC090,0.00,VWS V14.01,2013-09-20 05:17:00,
2013-09-20 01:22:00,74.9,73.7,29.94,East,97,0.0,0.0,96,0.00,,OVC090,0.00,VWS V14.01,2013-09-20 05:22:00,
2013-09-20 01:27:00,74.9,73.7,29.94,East,97,0.0,0.0,96,0.00,,OVC090,0.00,VWS V14.01,2013-09-20 05:27:00,
2013-09-20 01:30:00,74.9,73.7,29.96,East,97,0.0,0.0,96,0.00,,CLR,0.00,VWS V14.01,2013-09-20 05:30:00,
2013-09-20 01:32:00,74.7,73.5,29.94,East,97,0.0,0.0,96,0.00,,OVC090,0.00,VWS V14.01,2013-09-20 05:32:00,
2013-09-20 01:37:00,74.7,73.5,29.94,East,97,0.0,0.0,96,0.00,,OVC090,0.00,VWS V14.01,2013-09-20 05:37:00,
2013-09-20 01:42:00,74.7,73.5,29.94,East,97,0.0,0.0,96,0.00,,OVC090,0.00,VWS V14.01,2013-09-20 05:42:00,
2013-09-20 01:47:00,74.6,73.4,29.94,East,97,0.0,0.0,96,0.00,,OVC090,0.00,VWS V14.01,2013-09-20 05:47:00,
2013-09-20 01:52:00,74.6,73.4,29.94,East,97,0.0,0.0,96,0.00,,OVC090,0.00,VWS V14.01,2013-09-20 05:52:00,
2013-09-20 01:57:00,74.6,73.4,29.94,East,97,0.0,0.0,96,0.00,,OVC090,0.00,VWS V14.01,2013-09-20 05:57:00,
2013-09-20 02:00:00,75.1,73.9,29.95,East,97,0.0,0.0,96,0.00,,CLR,0.00,VWS V14.01,2013-09-20 06:00:00,
2013-09-20 02:02:00,74.6,73.4,29.94,East,97,0.0,0.0,96,0.00,,BKN100,0.00,VWS V14.01,2013-09-20 06:02:00,
2013-09-20 02:07:00,74.6,73.4,29.94,East,97,0.0,0.0,96,0.00,,BKN100,0.00,VWS V14.01,2013-09-20 06:07:00,
2013-09-20 02:12:00,74.6,73.4,29.94,East,97,0.0,0.0,96,0.00,,BKN100,0.00,VWS V14.01,2013-09-20 06:12:00,
2013-09-20 02:17:00,74.6,73.4,29.94,East,97,0.0,0.0,96,0.00,,BKN100,0.00,VWS V14.01,2013-09-20 06:17:00,
2013-09-20 02:22:00,74.6,73.4,29.94,East,97,0.0,0.0,96,0.00,,BKN100,0.00,VWS V14.01,2013-09-20 06:22:00,
2013-09-20 02:27:00,74.6,73.4,29.94,East,97,0.0,0.0,96,0.00,,BKN100,0.00,VWS V14.01,2013-09-20 06:27:00,
2013-09-20 02:30:00,74.7,73.5,29.94,East,97,0.0,0.0,96,0.00,,CLR,0.00,VWS V14.01,2013-09-20 06:30:00,
2013-09-20 02:32:00,74.6,73.4,29.94,East,97,0.0,0.0,96,0.00,,BKN100,0.00,VWS V14.01,2013-09-20 06:32:00,
2013-09-20 02:37:00,74.6,73.4,29.94,East,97,0.0,0.0,96,0.00,,BKN100,0.00,VWS V14.01,2013-09-20 06:37:00,
2013-09-20 02:42:00,74.7,73.5,29.94,East,97,0.0,0.0,96,0.00,,BKN100,0.00,VWS V14.01,2013-09-20 06:42:00,
2013-09-20 02:47:00,74.7,73.5,29.94,East,97,0.0,0.0,96,0.00,,BKN100,0.00,VWS V14.01,2013-09-20 06:47:00,
2013-09-20 02:52:00,74.7,73.5,29.94,East,97,0.0,0.0,96,0.00,,BKN100,0.00,VWS V14.01,2013-09-20 06:52:00,
2013-09-20 02:57:00,74.7,73.5,29.94,East,97,0.0,0.0,96,0.00,,BKN100,0.00,VWS V14.01,2013-09-20 06:57:00,
2013-09-20 03:00:00,74.6,73.4,29.94,East,97,0.0,0.0,96,0.00,,CLR,0.00,VWS V14.01,2013-09-20 07:00:00,
2013-09-20 03:02:00,74.7,73.5,29.94,East,97,0.0,0.0,96,0.00,,CLR,0.00,VWS V14.01,2013-09-20 07:02:00,
2013-09-20 03:07:00,74.7,73.5,29.94,East,97,0.0,0.0,96,0.00,,CLR,0.00,VWS V14.01,2013-09-20 07:07:00,
2013-09-20 03:12:00,74.7,73.5,29.94,East,97,0.0,0.0,96,0.00,,CLR,0.00,VWS V14.01,2013-09-20 07:12:00,
2013-09-20 03:17:00,74.7,73.5,29.94,East,97,0.0,0.0,96,0.00,,CLR,0.00,VWS V14.01,2013-09-20 07:17:00,
2013-09-20 03:22:00,74.7,73.5,29.94,East,97,0.0,0.0,96,0.00,,CLR,0.00,VWS V14.01,2013-09-20 07:22:00,
2013-09-20 03:27:00,74.7,73.5,29.94,East,97,0.0,0.0,96,0.00,,CLR,0.00,VWS V14.01,2013-09-20 07:27:00,
2013-09-20 03:30:00,74.6,73.4,29.94,East,97,0.0,0.0,96,0.00,,CLR,0.00,VWS V14.01,2013-09-20 07:30:00,
2013-09-20 03:32:00,74.7,73.5,29.94,East,97,0.0,0.0,96,0.00,,CLR,0.00,VWS V14.01,2013-09-20 07:32:00,
2013-09-20 03:37:00,74.6,73.4,29.94,East,97,0.0,0.0,96,0.00,,CLR,0.00,VWS V14.01,2013-09-20 07:37:00,
2013-09-20 03:42:00,74.6,73.4,29.94,East,97,0.0,0.0,96,0.00,,CLR,0.00,VWS V14.01,2013-09-20 07:42:00,
2013-09-20 03:47:00,74.6,73.4,29.93,East,97,0.0,0.0,96,0.00,,CLR,0.00,VWS V14.01,2013-09-20 07:47:00,
2013-09-20 03:52:00,74.6,73.1,29.93,East,97,0.0,0.0,95,0.00,,CLR,0.00,VWS V14.01,2013-09-20 07:52:00,
2013-09-20 03:57:00,74.6,73.1,29.93,East,97,0.0,0.0,95,0.00,,CLR,0.00,VWS V14.01,2013-09-20 07:57:00,
2013-09-20 04:00:00,74.7,73.5,29.94,East,97,0.0,0.0,96,0.00,,CLR,0.00,VWS V14.01,2013-09-20 08:00:00,
2013-09-20 04:02:00,74.6,73.1,29.93,East,97,0.0,0.0,95,0.00,,BKN085,0.00,VWS V14.01,2013-09-20 08:02:00,
2013-09-20 04:07:00,74.4,72.9,29.93,East,97,0.0,0.0,95,0.00,,BKN085,0.00,VWS V14.01,2013-09-20 08:07:00,
2013-09-20 04:12:00,74.4,72.9,29.93,East,97,0.0,0.0,95,0.00,,BKN085,0.00,VWS V14.01,2013-09-20 08:12:00,
2013-09-20 04:17:00,74.4,72.9,29.93,East,97,0.0,0.0,95,0.00,,BKN085,0.00,VWS V14.01,2013-09-20 08:17:00,
2013-09-20 04:22:00,74.2,72.7,29.93,East,97,0.0,0.0,95,0.00,,BKN085,0.00,VWS V14.01,2013-09-20 08:22:00,
2013-09-20 04:27:00,74.2,72.7,29.93,East,97,0.0,0.0,95,0.00,,BKN085,0.00,VWS V14.01,2013-09-20 08:27:00,
2013-09-20 04:30:00,74.7,73.5,29.94,East,97,0.0,0.0,96,0.00,,CLR,0.00,VWS V14.01,2013-09-20 08:30:00,
2013-09-20 04:32:00,74.2,72.7,29.93,East,97,0.0,0.0,95,0.00,,BKN085,0.00,VWS V14.01,2013-09-20 08:32:00,
2013-09-20 04:37:00,74.0,72.5,29.93,East,97,0.0,0.0,95,0.00,,BKN085,0.00,VWS V14.01,2013-09-20 08:37:00,
2013-09-20 04:42:00,74.0,72.5,29.93,East,97,0.0,0.0,95,0.00,,BKN085,0.00,VWS V14.01,2013-09-20 08:42:00,
2013-09-20 04:47:00,73.9,72.4,29.92,East,97,0.0,0.0,95,0.00,,BKN085,0.00,VWS V14.01,2013-09-20 08:47:00,
2013-09-20 04:52:00,73.9,72.4,29.92,East,97,0.0,0.0,95,0.00,,BKN085,0.00,VWS V14.01,2013-09-20 08:52:00,
2013-09-20 04:57:00,73.9,72.4,29.92,East,97,0.0,0.0,95,0.00,,BKN085,0.00,VWS V14.01,2013-09-20 08:57:00,
2013-09-20 05:00:00,74.6,73.1,29.93,East,97,0.0,0.0,95,0.00,,CLR,0.00,VWS V14.01,2013-09-20 09:00:00,
2013-09-20 05:02:00,73.9,72.4,29.92,East,97,0.0,0.0,95,0.00,,OVC080,0.00,VWS V14.01,2013-09-20 09:02:00,
2013-09-20 05:07:00,73.7,72.2,29.92,East,97,0.0,0.0,95,0.00,,OVC080,0.00,VWS V14.01,2013-09-20 09:07:00,
2013-09-20 05:12:00,73.7,72.2,29.92,East,97,0.0,0.0,95,0.00,,OVC080,0.00,VWS V14.01,2013-09-20 09:12:00,
2013-09-20 05:17:00,73.7,72.2,29.92,East,97,0.0,0.0,95,0.00,,OVC080,0.00,VWS V14.01,2013-09-20 09:17:00,
2013-09-20 05:22:00,73.5,72.0,29.92,East,97,0.0,0.0,95,0.00,,OVC080,0.00,VWS V14.01,2013-09-20 09:22:00,
2013-09-20 05:27:00,73.5,72.0,29.92,East,97,0.0,0.0,95,0.00,,OVC080,0.00,VWS V14.01,2013-09-20 09:27:00,
2013-09-20 05:30:00,74.2,72.7,29.93,East,97,0.0,0.0,95,0.00,,CLR,0.00,VWS V14.01,2013-09-20 09:30:00,
2013-09-20 05:32:00,73.5,72.0,29.92,East,97,0.0,0.0,95,0.00,,OVC080,0.00,VWS V14.01,2013-09-20 09:32:00,
2013-09-20 05:37:00,73.5,72.3,29.92,East,97,0.0,0.0,96,0.00,,OVC080,0.00,VWS V14.01,2013-09-20 09:37:00,
2013-09-20 05:42:00,73.5,72.3,29.92,East,97,0.0,0.0,96,0.00,,OVC080,0.00,VWS V14.01,2013-09-20 09:42:00,
2013-09-20 05:47:00,73.3,72.1,29.92,East,97,0.0,0.0,96,0.00,,OVC080,0.00,VWS V14.01,2013-09-20 09:47:00,
2013-09-20 05:52:00,73.3,72.1,29.92,East,97,0.0,0.0,96,0.00,,OVC080,0.00,VWS V14.01,2013-09-20 09:52:00,
2013-09-20 05:57:00,73.3,72.1,29.92,East,97,0.0,0.0,96,0.00,,OVC080,0.00,VWS V14.01,2013-09-20 09:57:00,
2013-09-20 06:00:00,73.9,72.4,29.92,East,97,0.0,0.0,95,0.00,,CLR,0.00,VWS V14.01,2013-09-20 10:00:00,
2013-09-20 06:02:00,73.3,72.1,29.93,East,97,0.0,0.0,96,0.00,,CLR,0.00,VWS V14.01,2013-09-20 10:02:00,
2013-09-20 06:07:00,73.3,72.1,29.93,East,97,0.0,0.0,96,0.00,,CLR,0.00,VWS V14.01,2013-09-20 10:07:00,
2013-09-20 06:12:00,73.2,72.0,29.93,East,97,0.0,0.0,96,0.00,,CLR,0.00,VWS V14.01,2013-09-20 10:12:00,
2013-09-20 06:17:00,73.2,72.0,29.93,East,97,0.0,0.0,96,0.01,,CLR,0.01,VWS V14.01,2013-09-20 10:17:00,
2013-09-20 06:22:00,73.2,72.0,29.93,East,97,0.0,0.0,96,0.01,,CLR,0.01,VWS V14.01,2013-09-20 10:22:00,
2013-09-20 06:27:00,73.0,71.8,29.93,East,97,0.0,0.0,96,0.01,,CLR,0.01,VWS V14.01,2013-09-20 10:27:00,
2013-09-20 06:30:00,73.5,72.0,29.92,East,97,0.0,0.0,95,0.00,,CLR,0.00,VWS V14.01,2013-09-20 10:30:00,
2013-09-20 06:32:00,73.0,71.8,29.93,East,97,0.0,0.0,96,0.01,,CLR,0.01,VWS V14.01,2013-09-20 10:32:00,
2013-09-20 06:37:00,73.0,71.8,29.93,East,97,0.0,0.0,96,0.01,,CLR,0.01,VWS V14.01,2013-09-20 10:37:00,
2013-09-20 06:42:00,73.0,71.8,29.93,East,97,0.0,0.0,96,0.01,,CLR,0.01,VWS V14.01,2013-09-20 10:42:00,
2013-09-20 06:47:00,73.0,71.8,29.93,East,97,0.0,0.0,96,0.01,,CLR,0.01,VWS V14.01,2013-09-20 10:47:00,
2013-09-20 06:52:00,72.8,71.6,29.93,East,97,0.0,0.0,96,0.01,,CLR,0.01,VWS V14.01,2013-09-20 10:52:00,
2013-09-20 06:57:00,72.8,71.6,29.93,East,97,0.0,0.0,96,0.01,,CLR,0.01,VWS V14.01,2013-09-20 10:57:00,
2013-09-20 07:00:00,73.3,72.1,29.93,East,97,0.0,0.0,96,0.00,,CLR,0.00,VWS V14.01,2013-09-20 11:00:00,
2013-09-20 07:02:00,72.8,71.6,29.93,East,97,0.0,0.0,96,0.01,,CLR,0.01,VWS V14.01,2013-09-20 11:02:00,
2013-09-20 07:07:00,72.8,71.6,29.93,East,97,0.0,0.0,96,0.01,,CLR,0.01,VWS V14.01,2013-09-20 11:07:00,
2013-09-20 07:12:00,72.7,71.5,29.93,East,97,0.0,0.0,96,0.01,,CLR,0.01,VWS V14.01,2013-09-20 11:12:00,
2013-09-20 07:17:00,72.7,71.5,29.94,East,97,0.0,0.0,96,0.01,,CLR,0.01,VWS V14.01,2013-09-20 11:17:00,
2013-09-20 07:22:00,72.7,71.5,29.94,East,97,0.0,0.0,96,0.01,,CLR,0.01,VWS V14.01,2013-09-20 11:22:00,
2013-09-20 07:27:00,72.5,71.3,29.94,East,97,0.0,0.0,96,0.01,,CLR,0.01,VWS V14.01,2013-09-20 11:27:00,
2013-09-20 07:30:00,73.0,71.8,29.93,East,97,0.0,0.0,96,0.01,,CLR,0.01,VWS V14.01,2013-09-20 11:30:00,
2013-09-20 07:32:00,72.5,71.3,29.94,East,97,0.0,0.0,96,0.00,,CLR,0.01,VWS V14.01,2013-09-20 11:32:00,
2013-09-20 07:37:00,72.5,71.3,29.94,East,97,0.0,0.0,96,0.00,,CLR,0.01,VWS V14.01,2013-09-20 11:37:00,
2013-09-20 07:42:00,72.5,71.3,29.94,East,97,0.0,1.0,96,0.00,,CLR,0.01,VWS V14.01,2013-09-20 11:42:00,
2013-09-20 07:47:00,72.7,71.5,29.94,East,97,0.0,1.0,96,0.00,,CLR,0.01,VWS V14.01,2013-09-20 11:47:00,
2013-09-20 07:52:00,72.8,71.6,29.94,East,97,0.0,1.0,96,0.00,,CLR,0.01,VWS V14.01,2013-09-20 11:52:00,
2013-09-20 07:57:00,73.0,71.8,29.94,East,97,0.0,1.0,96,0.00,,CLR,0.01,VWS V14.01,2013-09-20 11:57:00,
2013-09-20 08:00:00,72.8,71.6,29.93,East,97,0.0,0.0,96,0.01,,CLR,0.01,VWS V14.01,2013-09-20 12:00:00,
2013-09-20 08:02:00,73.2,72.0,29.94,East,97,0.0,0.0,96,0.00,,CLR,0.01,VWS V14.01,2013-09-20 12:02:00,
2013-09-20 08:07:00,73.2,72.0,29.94,East,97,0.0,0.0,96,0.00,,CLR,0.01,VWS V14.01,2013-09-20 12:07:00,
2013-09-20 08:12:00,73.2,71.7,29.94,East,97,0.0,0.0,95,0.00,,CLR,0.01,VWS V14.01,2013-09-20 12:12:00,
2013-09-20 08:17:00,73.3,71.8,29.95,East,97,0.0,0.0,95,0.00,,CLR,0.01,VWS V14.01,2013-09-20 12:17:00,
2013-09-20 08:22:00,73.5,72.0,29.95,East,97,0.0,0.0,95,0.00,,CLR,0.01,VWS V14.01,2013-09-20 12:22:00,
2013-09-20 08:27:00,73.7,72.2,29.95,East,97,0.0,0.0,95,0.00,,CLR,0.01,VWS V14.01,2013-09-20 12:27:00,
2013-09-20 08:30:00,72.5,71.3,29.94,East,97,0.0,0.0,96,0.01,,CLR,0.01,VWS V14.01,2013-09-20 12:30:00,
2013-09-20 08:32:00,73.9,72.4,29.95,East,97,0.0,0.0,95,0.00,,CLR,0.01,VWS V14.01,2013-09-20 12:32:00,
2013-09-20 08:37:00,74.2,72.7,29.95,East,96,0.0,0.0,95,0.00,,CLR,0.01,VWS V14.01,2013-09-20 12:37:00,
2013-09-20 08:42:00,74.6,72.8,29.95,East,96,0.0,0.0,94,0.00,,CLR,0.01,VWS V14.01,2013-09-20 12:42:00,
2013-09-20 08:47:00,74.6,72.8,29.96,East,96,0.0,0.0,94,0.00,,CLR,0.01,VWS V14.01,2013-09-20 12:47:00,
2013-09-20 08:52:00,75.3,73.5,29.96,East,96,0.0,0.0,94,0.00,,CLR,0.01,VWS V14.01,2013-09-20 12:52:00,
2013-09-20 08:57:00,76.1,73.0,29.96,East,96,0.0,0.0,90,0.00,,CLR,0.01,VWS V14.01,2013-09-20 12:57:00,
2013-09-20 09:00:00,73.0,71.8,29.94,East,97,0.0,1.0,96,0.00,,CLR,0.01,VWS V14.01,2013-09-20 13:00:00,
2013-09-20 09:02:00,76.7,72.9,29.96,East,96,0.0,0.0,88,0.00,,CLR,0.01,VWS V14.01,2013-09-20 13:02:00,
2013-09-20 09:07:00,76.8,72.6,29.96,East,85,0.0,0.0,87,0.00,,CLR,0.01,VWS V14.01,2013-09-20 13:07:00,
2013-09-20 09:12:00,77.2,73.0,29.96,ENE,72,0.0,1.0,87,0.00,,CLR,0.01,VWS V14.01,2013-09-20 13:12:00,
2013-09-20 09:17:00,77.7,73.2,29.96,ENE,72,0.0,1.0,86,0.00,,CLR,0.01,VWS V14.01,2013-09-20 13:17:00,
2013-09-20 09:22:00,78.1,72.5,29.96,ENE,71,1.0,2.0,83,0.00,,CLR,0.01,VWS V14.01,2013-09-20 13:22:00,
2013-09-20 09:27:00,78.3,72.7,29.96,ENE,69,0.0,2.0,83,0.00,,CLR,0.01,VWS V14.01,2013-09-20 13:27:00,
2013-09-20 09:30:00,73.9,72.4,29.95,East,97,0.0,0.0,95,0.00,,CLR,0.01,VWS V14.01,2013-09-20 13:30:00,
2013-09-20 09:32:00,78.6,72.3,29.96,ENE,71,3.0,3.0,81,0.00,,CLR,0.01,VWS V14.01,2013-09-20 13:32:00,
2013-09-20 09:37:00,78.6,71.9,29.96,ENE,71,3.0,4.0,80,0.00,,CLR,0.01,VWS V14.01,2013-09-20 13:37:00,
2013-09-20 09:42:00,79.0,72.7,29.96,NE,48,0.0,4.0,81,0.00,,CLR,0.01,VWS V14.01,2013-09-20 13:42:00,
2013-09-20 09:47:00,79.2,72.1,29.96,ENE,65,0.0,6.0,79,0.00,,CLR,0.01,VWS V14.01,2013-09-20 13:47:00,
2013-09-20 09:53:00,79.4,72.3,29.96,ENE,65,0.0,6.0,79,0.00,,CLR,0.01,VWS V14.01,2013-09-20 13:53:00,
2013-09-20 09:58:00,79.9,72.4,29.96,East,82,0.0,6.0,78,0.00,,CLR,0.01,VWS V14.01,2013-09-20 13:58:00,
2013-09-20 10:00:00,76.3,73.2,29.96,East,96,0.0,0.0,90,0.00,,CLR,0.01,VWS V14.01,2013-09-20 14:00:00,
2013-09-20 10:03:00,80.1,72.2,29.96,East,82,0.0,0.0,77,0.00,,CLR,0.01,VWS V14.01,2013-09-20 14:03:00,
2013-09-20 10:08:00,80.5,72.2,29.96,ENE,73,2.0,8.0,76,0.00,,CLR,0.01,VWS V14.01,2013-09-20 14:08:00,
2013-09-20 10:13:00,80.5,72.2,29.96,NNE,25,0.0,8.0,76,0.00,,CLR,0.01,VWS V14.01,2013-09-20 14:13:00,
2013-09-20 10:18:00,80.9,71.8,29.95,ENE,58,2.0,8.0,74,0.00,,CLR,0.01,VWS V14.01,2013-09-20 14:18:00,
2013-09-20 10:23:00,80.9,71.4,29.95,ENE,62,0.0,8.0,73,0.00,,CLR,0.01,VWS V14.01,2013-09-20 14:23:00,
2013-09-20 10:28:00,81.2,71.7,29.95,ENE,65,0.0,8.0,73,0.00,,CLR,0.01,VWS V14.01,2013-09-20 14:28:00,
2013-09-20 10:30:00,78.5,72.2,29.96,ENE,68,0.0,2.0,81,0.00,,CLR,0.01,VWS V14.01,2013-09-20 14:30:00,
2013-09-20 10:33:00,81.4,71.9,29.95,NE,47,0.0,6.0,73,0.00,,CLR,0.01,VWS V14.01,2013-09-20 14:33:00,
2013-09-20 10:38:00,81.4,71.5,29.95,East,100,2.0,6.0,72,0.00,,CLR,0.01,VWS V14.01,2013-09-20 14:38:00,
2013-09-20 10:43:00,81.8,71.9,29.95,East,93,0.0,6.0,72,0.00,,CLR,0.01,VWS V14.01,2013-09-20 14:43:00,
2013-09-20 10:48:00,82.2,72.3,29.95,East,93,0.0,6.0,72,0.00,,CLR,0.01,VWS V14.01,2013-09-20 14:48:00,
2013-09-20 10:53:00,82.4,71.6,29.95,East,86,0.0,6.0,70,0.00,,CLR,0.01,VWS V14.01,2013-09-20 14:53:00,
2013-09-20 10:58:00,82.8,72.0,29.95,East,86,0.0,6.0,70,0.00,,CLR,0.01,VWS V14.01,2013-09-20 14:58:00,
2013-09-20 11:00:00,79.9,72.1,29.96,East,82,0.0,6.0,77,0.00,,CLR,0.01,VWS V14.01,2013-09-20 15:00:00,
2013-09-20 11:03:00,82.8,71.2,29.95,East,85,1.0,6.0,68,0.00,,CLR,0.01,VWS V14.01,2013-09-20 15:03:00,
2013-09-20 11:08:00,82.2,70.6,29.95,East,89,0.0,6.0,68,0.00,,CLR,0.01,VWS V14.01,2013-09-20 15:08:00,
2013-09-20 11:13:00,82.4,70.8,29.95,East,82,3.0,6.0,68,0.00,,CLR,0.01,VWS V14.01,2013-09-20 15:13:00,
2013-09-20 11:18:00,82.4,70.8,29.95,East,90,1.0,6.0,68,0.00,,CLR,0.01,VWS V14.01,2013-09-20 15:18:00,
2013-09-20 11:23:00,82.6,70.5,29.95,NE,38,0.0,8.0,67,0.00,,CLR,0.01,VWS V14.01,2013-09-20 15:23:00,
2013-09-20 11:28:00,83.0,70.9,29.95,ESE,116,2.0,8.0,67,0.00,,CLR,0.01,VWS V14.01,2013-09-20 15:28:00,
2013-09-20 11:30:00,81.2,71.7,29.95,ENE,65,0.0,8.0,73,0.00,,CLR,0.01,VWS V14.01,2013-09-20 15:30:00,
2013-09-20 11:33:00,83.2,71.1,29.94,SE,126,0.0,0.0,67,0.00,,CLR,0.01,VWS V14.01,2013-09-20 15:33:00,
2013-09-20 11:38:00,83.6,71.1,29.94,SE,130,7.0,7.0,66,0.00,,CLR,0.01,VWS V14.01,2013-09-20 15:38:00,
2013-09-20 11:43:00,83.4,70.9,29.94,SE,134,0.0,7.0,66,0.00,,CLR,0.01,VWS V14.01,2013-09-20 15:43:00,
2013-09-20 11:48:00,84.1,71.5,29.94,SSE,152,1.0,7.0,66,0.00,,CLR,0.01,VWS V14.01,2013-09-20 15:48:00,
2013-09-20 11:53:00,84.3,71.7,29.94,ESE,116,0.0,7.0,66,0.00,,CLR,0.01,VWS V14.01,2013-09-20 15:53:00,
2013-09-20 11:58:00,84.1,70.6,29.94,ESE,121,0.0,8.0,64,0.00,,CLR,0.01,VWS V14.01,2013-09-20 15:58:00,
2013-09-20 12:00:00,82.8,72.0,29.95,East,86,0.0,6.0,70,0.00,,CLR,0.01,VWS V14.01,2013-09-20 16:00:00,
2013-09-20 12:03:00,84.0,71.4,29.94,ESE,119,0.0,0.0,66,0.00,,CLR,0.01,VWS V14.01,2013-09-20 16:03:00,
2013-09-20 12:08:00,83.8,71.2,29.94,ESE,117,0.0,6.0,66,0.00,,CLR,0.01,VWS V14.01,2013-09-20 16:08:00,
2013-09-20 12:13:00,83.8,71.2,29.94,NE,38,0.0,7.0,66,0.00,,CLR,0.01,VWS V14.01,2013-09-20 16:13:00,
2013-09-20 12:18:00,83.8,70.3,29.94,ESE,104,0.0,7.0,64,0.00,,CLR,0.01,VWS V14.01,2013-09-20 16:18:00,
2013-09-20 12:23:00,84.3,70.3,29.94,SE,133,0.0,7.0,63,0.00,,CLR,0.01,VWS V14.01,2013-09-20 16:23:00,
2013-09-20 12:28:00,84.5,70.5,29.94,SE,130,0.0,7.0,63,0.00,,CLR,0.01,VWS V14.01,2013-09-20 16:28:00,
2013-09-20 12:30:00,83.0,70.5,29.94,SE,131,0.0,8.0,66,0.00,,CLR,0.01,VWS V14.01,2013-09-20 16:30:00,
2013-09-20 12:33:00,84.1,70.6,29.94,ENE,73,0.0,3.0,64,0.00,,CLR,0.01,VWS V14.01,2013-09-20 16:33:00,
2013-09-20 12:38:00,84.3,70.8,29.94,East,86,0.0,3.0,64,0.00,,CLR,0.01,VWS V14.01,2013-09-20 16:38:00,
2013-09-20 12:43:00,84.1,70.2,29.94,East,82,0.0,3.0,63,0.00,,CLR,0.01,VWS V14.01,2013-09-20 16:43:00,
2013-09-20 12:48:00,83.8,69.9,29.94,ENE,78,0.0,3.0,63,0.00,,CLR,0.01,VWS V14.01,2013-09-20 16:48:00,
2013-09-20 12:53:00,84.0,69.6,29.94,East,86,1.0,4.0,62,0.00,,CLR,0.01,VWS V14.01,2013-09-20 16:53:00,
2013-09-20 12:58:00,84.1,69.7,29.94,ESE,113,0.0,9.0,62,0.00,,CLR,0.01,VWS V14.01,2013-09-20 16:58:00,
2013-09-20 13:00:00,84.1,70.6,29.94,ESE,120,0.0,8.0,64,0.00,,CLR,0.01,VWS V14.01,2013-09-20 17:00:00,
2013-09-20 13:03:00,84.7,70.2,29.93,ESE,113,0.0,1.0,62,0.00,,CLR,0.01,VWS V14.01,2013-09-20 17:03:00,
2013-09-20 13:08:00,85.1,69.2,29.93,ESE,102,0.0,1.0,59,0.00,,CLR,0.01,VWS V14.01,2013-09-20 17:08:00,
2013-09-20 13:13:00,85.1,69.2,29.93,East,100,0.0,1.0,59,0.00,,CLR,0.01,VWS V14.01,2013-09-20 17:13:00,
2013-09-20 13:18:00,84.9,69.0,29.93,ENE,73,0.0,1.0,59,0.00,,CLR,0.01,VWS V14.01,2013-09-20 17:18:00,
2013-09-20 13:23:00,85.1,68.2,29.93,ENE,75,0.0,3.0,57,0.00,,CLR,0.01,VWS V14.01,2013-09-20 17:23:00,
2013-09-20 13:28:00,85.1,69.2,29.93,ENE,73,0.0,3.0,59,0.00,,CLR,0.01,VWS V14.01,2013-09-20 17:28:00,
2013-09-20 13:30:00,84.3,70.3,29.94,NE,48,3.0,7.0,63,0.00,,CLR,0.01,VWS V14.01,2013-09-20 17:30:00,
2013-09-20 13:33:00,85.3,68.9,29.92,ENE,75,0.0,0.0,58,0.00,,CLR,0.01,VWS V14.01,2013-09-20 17:33:00,
2013-09-20 13:38:00,85.5,68.5,29.92,SE,126,6.0,6.0,57,0.00,,CLR,0.01,VWS V14.01,2013-09-20 17:38:00,
2013-09-20 13:43:00,85.5,68.5,29.92,East,79,0.0,6.0,57,0.00,,CLR,0.01,VWS V14.01,2013-09-20 17:43:00,
2013-09-20 13:48:00,85.5,69.6,29.91,East,79,0.0,6.0,59,0.00,,CLR,0.01,VWS V14.01,2013-09-20 17:48:00,
2013-09-20 13:53:00,85.7,68.7,29.91,ESE,109,0.0,6.0,57,0.00,,CLR,0.01,VWS V14.01,2013-09-20 17:53:00,
2013-09-20 13:58:00,85.9,69.4,29.91,East,97,0.0,6.0,58,0.00,,CLR,0.01,VWS V14.01,2013-09-20 17:58:00,
2013-09-20 14:00:00,84.1,69.7,29.93,ESE,113,0.0,9.0,62,0.00,,CLR,0.01,VWS V14.01,2013-09-20 18:00:00,
2013-09-20 14:03:00,85.5,69.1,29.91,ESE,102,0.0,1.0,58,0.00,,SCT032,0.01,VWS V14.01,2013-09-20 18:03:00,
2013-09-20 14:08:00,85.7,69.2,29.91,ENE,78,0.0,3.0,58,0.00,,SCT032,0.01,VWS V14.01,2013-09-20 18:08:00,
2013-09-20 14:13:00,85.9,69.4,29.91,ENE,66,0.0,3.0,58,0.00,,SCT032,0.01,VWS V14.01,2013-09-20 18:13:00,
2013-09-20 14:18:00,86.3,69.3,29.90,NE,54,0.0,5.0,57,0.00,,SCT032,0.01,VWS V14.01,2013-09-20 18:18:00,
2013-09-20 14:23:00,86.3,69.3,29.90,East,80,0.0,5.0,57,0.00,,SCT032,0.01,VWS V14.01,2013-09-20 18:23:00,
2013-09-20 14:28:00,85.9,69.4,29.90,East,83,0.0,5.0,58,0.00,,SCT032,0.01,VWS V14.01,2013-09-20 18:28:00,
2013-09-20 14:30:00,85.1,68.2,29.92,ENE,75,0.0,3.0,57,0.00,,CLR,0.01,VWS V14.01,2013-09-20 18:30:00,
2013-09-20 14:33:00,86.1,69.1,29.90,ENE,68,0.0,0.0,57,0.00,,SCT032,0.01,VWS V14.01,2013-09-20 18:33:00,
2013-09-20 14:38:00,86.3,69.8,29.90,ENE,68,0.0,0.0,58,0.00,,SCT032,0.01,VWS V14.01,2013-09-20 18:38:00,
2013-09-20 14:43:00,86.1,69.1,29.90,East,89,0.0,3.0,57,0.00,,SCT032,0.01,VWS V14.01,2013-09-20 18:43:00,
2013-09-20 14:48:00,86.5,69.5,29.89,East,79,1.0,3.0,57,0.00,,SCT032,0.01,VWS V14.01,2013-09-20 18:48:00,
2013-09-20 14:53:00,86.1,69.1,29.89,ENE,69,0.0,3.0,57,0.00,,SCT032,0.01,VWS V14.01,2013-09-20 18:53:00,
2013-09-20 14:58:00,86.3,68.8,29.89,ENE,59,0.0,5.0,56,0.00,,SCT032,0.01,VWS V14.01,2013-09-20 18:58:00,
2013-09-20 15:00:00,85.9,68.9,29.91,ENE,75,0.0,6.0,57,0.00,,CLR,0.01,VWS V14.01,2013-09-20 19:00:00,
2013-09-20 15:03:00,86.1,69.1,29.88,ENE,61,0.0,0.0,57,0.00,,SCT030,0.01,VWS V14.01,2013-09-20 19:03:00,
2013-09-20 15:08:00,86.3,68.8,29.88,NNE,31,0.0,6.0,56,0.00,,SCT030,0.01,VWS V14.01,2013-09-20 19:08:00,
2013-09-20 15:13:00,86.3,68.2,29.88,NE,51,0.0,7.0,55,0.00,,SCT030,0.01,VWS V14.01,2013-09-20 19:13:00,
2013-09-20 15:18:00,86.5,69.0,29.87,NNE,24,6.0,7.0,56,0.00,,SCT030,0.01,VWS V14.01,2013-09-20 19:18:00,
2013-09-20 15:23:00,86.3,69.3,29.87,NE,37,0.0,7.0,57,0.00,,SCT030,0.01,VWS V14.01,2013-09-20 19:23:00,
2013-09-20 15:28:00,86.5,68.4,29.87,NE,54,1.0,7.0,55,0.00,,SCT030,0.01,VWS V14.01,2013-09-20 19:28:00,
2013-09-20 15:30:00,85.9,69.4,29.90,ENE,68,0.0,5.0,58,0.00,,CLR,0.01,VWS V14.01,2013-09-20 19:30:00,
2013-09-20 15:33:00,86.5,69.0,29.86,ENE,61,0.0,5.0,56,0.00,,SCT030,0.01,VWS V14.01,2013-09-20 19:33:00,
2013-09-20 15:38:00,86.5,68.4,29.86,ENE,68,0.0,5.0,55,0.00,,SCT030,0.01,VWS V14.01,2013-09-20 19:38:00,
2013-09-20 15:43:00,87.0,68.9,29.86,ENE,62,0.0,6.0,55,0.00,,SCT030,0.01,VWS V14.01,2013-09-20 19:43:00,
2013-09-20 15:48:00,86.7,68.1,29.85,ENE,61,0.0,6.0,54,0.00,,SCT030,0.01,VWS V14.01,2013-09-20 19:48:00,
2013-09-20 15:53:00,86.7,68.1,29.85,ENE,72,0.0,6.0,54,0.00,,SCT030,0.01,VWS V14.01,2013-09-20 19:53:00,
2013-09-20 15:58:00,87.0,68.9,29.85,ENE,73,0.0,6.0,55,0.00,,SCT030,0.01,VWS V14.01,2013-09-20 19:58:00,
2013-09-20 16:00:00,86.1,68.6,29.88,ENE,61,0.0,5.0,56,0.00,,CLR,0.01,VWS V14.01,2013-09-20 20:00:00,
2013-09-20 16:03:00,87.4,69.3,29.85,NE,56,0.0,2.0,55,0.00,,SCT035,0.01,VWS V14.01,2013-09-20 20:03:00,
2013-09-20 16:08:00,87.8,68.6,29.85,NE,56,0.0,2.0,53,0.00,,SCT035,0.01,VWS V14.01,2013-09-20 20:08:00,
2013-09-20 16:13:00,87.6,68.4,29.85,NE,37,0.0,7.0,53,0.00,,SCT035,0.01,VWS V14.01,2013-09-20 20:13:00,
2013-09-20 16:18:00,87.4,70.3,29.85,NNE,21,0.0,7.0,57,0.00,,SCT035,0.01,VWS V14.01,2013-09-20 20:18:00,
2013-09-20 16:23:00,87.2,71.1,29.85,NNE,18,0.0,7.0,59,0.00,,SCT035,0.01,VWS V14.01,2013-09-20 20:23:00,
2013-09-20 16:28:00,87.2,72.1,29.85,NNE,13,0.0,7.0,61,0.00,,SCT035,0.01,VWS V14.01,2013-09-20 20:28:00,
2013-09-20 16:30:00,86.5,68.4,29.86,ENE,68,0.0,7.0,55,0.00,,CLR,0.01,VWS V14.01,2013-09-20 20:30:00,
2013-09-20 16:33:00,87.2,73.1,29.85,North,8,0.0,0.0,63,0.00,,SCT035,0.01,VWS V14.01,2013-09-20 20:33:00,
2013-09-20 16:38:00,87.2,72.6,29.85,WNW,294,0.0,7.0,62,0.00,,SCT035,0.01,VWS V14.01,2013-09-20 20:38:00,
2013-09-20 16:43:00,87.2,72.6,29.85,NW,312,0.0,7.0,62,0.00,,SCT035,0.01,VWS V14.01,2013-09-20 20:43:00,
2013-09-20 16:48:00,87.2,73.1,29.85,NW,305,0.0,7.0,63,0.00,,SCT035,0.01,VWS V14.01,2013-09-20 20:48:00,
2013-09-20 16:53:00,86.7,73.1,29.85,NW,305,0.0,7.0,64,0.00,,SCT035,0.01,VWS V14.01,2013-09-20 20:53:00,
2013-09-20 16:58:00,86.5,72.4,29.84,NW,309,0.0,7.0,63,0.00,,SCT035,0.01,VWS V14.01,2013-09-20 20:58:00,
2013-09-20 17:00:00,87.0,68.4,29.85,ENE,66,0.0,6.0,54,0.00,,CLR,0.01,VWS V14.01,2013-09-20 21:00:00,
2013-09-20 17:03:00,86.5,72.9,29.84,WNW,298,0.0,4.0,64,0.00,,CLR,0.01,VWS V14.01,2013-09-20 21:03:00,
2013-09-20 17:08:00,86.3,72.2,29.84,WNW,296,0.0,4.0,63,0.00,,CLR,0.01,VWS V14.01,2013-09-20 21:08:00,
2013-09-20 17:13:00,86.3,72.7,29.84,NW,323,0.0,5.0,64,0.00,,CLR,0.01,VWS V14.01,2013-09-20 21:13:00,
2013-09-20 17:18:00,86.3,72.7,29.84,NW,326,0.0,5.0,64,0.00,,CLR,0.01,VWS V14.01,2013-09-20 21:18:00,
2013-09-20 17:23:00,85.9,72.3,29.84,NW,326,0.0,5.0,64,0.00,,CLR,0.01,VWS V14.01,2013-09-20 21:23:00,
2013-09-20 17:28:00,85.9,72.3,29.84,NW,325,0.0,5.0,64,0.00,,CLR,0.01,VWS V14.01,2013-09-20 21:28:00,
2013-09-20 17:30:00,87.2,72.1,29.85,NNE,13,0.0,7.0,61,0.00,,CLR,0.01,VWS V14.01,2013-09-20 21:30:00,
2013-09-20 17:33:00,85.9,72.8,29.84,NW,325,0.0,0.0,65,0.00,,CLR,0.01,VWS V14.01,2013-09-20 21:33:00,
2013-09-20 17:38:00,86.1,72.5,29.84,NW,322,0.0,1.0,64,0.00,,CLR,0.01,VWS V14.01,2013-09-20 21:38:00,
2013-09-20 17:43:00,86.1,72.5,29.84,NW,322,0.0,1.0,64,0.00,,CLR,0.01,VWS V14.01,2013-09-20 21:43:00,
2013-09-20 17:48:00,86.1,72.5,29.84,NW,320,0.0,1.0,64,0.00,,CLR,0.01,VWS V14.01,2013-09-20 21:48:00,
2013-09-20 17:54:00,86.3,72.7,29.84,NW,318,0.0,1.0,64,0.00,,CLR,0.01,VWS V14.01,2013-09-20 21:54:00,
2013-09-20 17:59:00,86.1,72.5,29.83,NW,311,0.0,2.0,64,0.00,,CLR,0.01,VWS V14.01,2013-09-20 21:59:00,
2013-09-20 18:00:00,86.5,72.4,29.84,NW,309,0.0,7.0,63,0.00,,CLR,0.01,VWS V14.01,2013-09-20 22:00:00,
2013-09-20 18:04:00,86.1,72.5,29.83,NW,313,3.0,3.0,64,0.00,,CLR,0.01,VWS V14.01,2013-09-20 22:04:00,
2013-09-20 18:08:00,85.9,72.3,29.83,NW,311,0.0,4.0,64,0.00,,CLR,0.01,VWS V14.01,2013-09-20 22:08:00,
2013-09-20 18:14:00,85.5,71.9,29.83,NW,318,0.0,4.0,64,0.00,,CLR,0.01,VWS V14.01,2013-09-20 22:14:00,
2013-09-20 18:19:00,85.3,71.8,29.83,NW,306,0.0,6.0,64,0.00,,CLR,0.01,VWS V14.01,2013-09-20 22:19:00,
2013-09-20 18:24:00,85.3,72.2,29.83,NW,308,0.0,6.0,65,0.00,,CLR,0.01,VWS V14.01,2013-09-20 22:24:00,
2013-09-20 18:29:00,85.1,71.6,29.83,NW,319,0.0,6.0,64,0.00,,CLR,0.01,VWS V14.01,2013-09-20 22:29:00,
2013-09-20 18:30:00,85.9,72.3,29.84,NW,325,0.0,5.0,64,0.00,,CLR,0.01,VWS V14.01,2013-09-20 22:30:00,
2013-09-20 18:34:00,85.1,71.6,29.83,NW,318,0.0,0.0,64,0.00,,CLR,0.01,VWS V14.01,2013-09-20 22:34:00,
2013-09-20 18:39:00,85.1,71.6,29.83,NW,319,0.0,0.0,64,0.00,,CLR,0.01,VWS V14.01,2013-09-20 22:39:00,
2013-09-20 18:44:00,84.9,71.8,29.83,NW,323,0.0,0.0,65,0.00,,CLR,0.01,VWS V14.01,2013-09-20 22:44:00,
2013-09-20 18:49:00,84.7,72.5,29.83,NW,320,0.0,0.0,67,0.00,,CLR,0.01,VWS V14.01,2013-09-20 22:49:00,
2013-09-20 18:54:00,84.5,72.3,29.83,NW,320,0.0,0.0,67,0.00,,CLR,0.01,VWS V14.01,2013-09-20 22:54:00,
2013-09-20 18:59:00,84.1,71.5,29.83,NW,325,0.0,0.0,66,0.00,,CLR,0.01,VWS V14.01,2013-09-20 22:59:00,
2013-09-20 19:00:00,86.1,72.5,29.83,NW,311,0.0,2.0,64,0.00,,CLR,0.01,VWS V14.01,2013-09-20 23:00:00,
2013-09-20 19:04:00,83.8,71.7,29.83,NNW,333,3.0,3.0,67,0.00,,CLR,0.01,VWS V14.01,2013-09-20 23:04:00,
2013-09-20 19:09:00,83.4,72.2,29.83,NNW,335,0.0,4.0,69,0.00,,CLR,0.01,VWS V14.01,2013-09-20 23:09:00,
2013-09-20 19:14:00,83.2,72.4,29.83,NNW,333,0.0,4.0,70,0.00,,CLR,0.01,VWS V14.01,2013-09-20 23:14:00,
2013-09-20 19:19:00,82.8,71.6,29.83,NNW,333,0.0,4.0,69,0.00,,CLR,0.01,VWS V14.01,2013-09-20 23:19:00,
2013-09-20 19:24:00,82.4,71.2,29.83,NNW,332,0.0,4.0,69,0.00,,CLR,0.01,VWS V14.01,2013-09-20 23:24:00,
2013-09-20 19:29:00,82.2,71.4,29.83,NNW,333,0.0,4.0,70,0.00,,CLR,0.01,VWS V14.01,2013-09-20 23:29:00,
2013-09-20 19:30:00,85.1,71.6,29.83,NW,318,0.0,6.0,64,0.00,,CLR,0.01,VWS V14.01,2013-09-20 23:30:00,
2013-09-20 19:34:00,82.0,71.7,29.83,NNW,333,0.0,0.0,71,0.00,,CLR,0.01,VWS V14.01,2013-09-20 23:34:00,
2013-09-20 19:39:00,81.8,71.5,29.83,NNW,333,0.0,0.0,71,0.00,,CLR,0.01,VWS V14.01,2013-09-20 23:39:00,
2013-09-20 19:44:00,81.6,71.7,29.83,NNW,333,0.0,0.0,72,0.00,,CLR,0.01,VWS V14.01,2013-09-20 23:44:00,
2013-09-20 19:49:00,81.6,71.7,29.83,NNW,333,0.0,0.0,72,0.00,,CLR,0.01,VWS V14.01,2013-09-20 23:49:00,
2013-09-20 19:54:00,81.4,71.5,29.83,NNW,333,0.0,0.0,72,0.00,,CLR,0.01,VWS V14.01,2013-09-20 23:54:00,
2013-09-20 19:59:00,81.4,71.5,29.83,NNW,333,0.0,0.0,72,0.00,,CLR,0.01,VWS V14.01,2013-09-20 23:59:00,
2013-09-20 20:00:00,84.1,71.5,29.83,NW,325,0.0,0.0,66,0.00,,CLR,0.01,VWS V14.01,2013-09-21 00:00:00,
2013-09-20 20:04:00,81.2,71.7,29.83,NNW,333,0.0,0.0,73,0.00,,SCT065,0.01,VWS V14.01,2013-09-21 00:04:00,
2013-09-20 20:09:00,81.1,71.6,29.83,NNW,333,0.0,0.0,73,0.00,,SCT065,0.01,VWS V14.01,2013-09-21 00:09:00,
2013-09-20 20:14:00,81.1,71.6,29.83,NNW,333,0.0,0.0,73,0.00,,SCT065,0.01,VWS V14.01,2013-09-21 00:14:00,
2013-09-20 20:19:00,81.1,71.2,29.83,NNW,333,0.0,0.0,72,0.00,,SCT065,0.01,VWS V14.01,2013-09-21 00:19:00,
2013-09-20 20:24:00,81.1,71.2,29.83,NNW,333,0.0,0.0,72,0.00,,SCT065,0.01,VWS V14.01,2013-09-21 00:24:00,
2013-09-20 20:29:00,81.1,71.6,29.83,NNW,333,0.0,0.0,73,0.00,,SCT065,0.01,VWS V14.01,2013-09-21 00:29:00,
2013-09-20 20:30:00,82.0,71.3,29.83,NNW,333,0.0,4.0,70,0.00,,CLR,0.01,VWS V14.01,2013-09-21 00:30:00,
2013-09-20 20:34:00,81.1,71.6,29.83,NNW,336,0.0,0.0,73,0.00,,SCT065,0.01,VWS V14.01,2013-09-21 00:34:00,
2013-09-20 20:39:00,81.1,71.6,29.83,NNW,336,0.0,0.0,73,0.00,,SCT065,0.01,VWS V14.01,2013-09-21 00:39:00,
2013-09-20 20:44:00,81.1,71.6,29.84,NNW,336,0.0,0.0,73,0.00,,SCT065,0.01,VWS V14.01,2013-09-21 00:44:00,
2013-09-20 20:49:00,80.9,71.4,29.84,NNW,336,0.0,0.0,73,0.00,,SCT065,0.01,VWS V14.01,2013-09-21 00:49:00,
2013-09-20 20:54:00,80.9,71.4,29.84,NNW,336,0.0,0.0,73,0.00,,SCT065,0.01,VWS V14.01,2013-09-21 00:54:00,
2013-09-20 20:59:00,80.9,71.4,29.85,NNW,336,0.0,0.0,73,0.00,,SCT065,0.01,VWS V14.01,2013-09-21 00:59:00,
2013-09-20 21:00:00,81.4,71.5,29.83,NNW,333,0.0,0.0,72,0.00,,CLR,0.01,VWS V14.01,2013-09-21 01:00:00,
2013-09-20 21:04:00,80.7,71.7,29.85,NNW,336,0.0,0.0,74,0.00,,FEW060,0.01,VWS V14.01,2013-09-21 01:04:00,
2013-09-20 21:09:00,80.7,71.7,29.85,NNW,336,0.0,0.0,74,0.00,,FEW060,0.01,VWS V14.01,2013-09-21 01:09:00,
2013-09-20 21:14:00,80.7,71.7,29.85,NNW,336,0.0,0.0,74,0.00,,FEW060,0.01,VWS V14.01,2013-09-21 01:14:00,
2013-09-20 21:19:00,80.7,71.7,29.85,NNW,336,0.0,0.0,74,0.00,,FEW060,0.01,VWS V14.01,2013-09-21 01:19:00,
2013-09-20 21:24:00,80.5,71.5,29.85,NNW,336,0.0,0.0,74,0.00,,FEW060,0.01,VWS V14.01,2013-09-21 01:24:00,
2013-09-20 21:29:00,80.5,71.8,29.86,NNW,336,0.0,0.0,75,0.00,,FEW060,0.01,VWS V14.01,2013-09-21 01:29:00,
2013-09-20 21:30:00,81.1,71.6,29.83,NNW,333,0.0,0.0,73,0.00,,CLR,0.01,VWS V14.01,2013-09-21 01:30:00,
2013-09-20 21:34:00,80.5,71.8,29.86,NNW,336,0.0,0.0,75,0.00,,FEW060,0.01,VWS V14.01,2013-09-21 01:34:00,
2013-09-20 21:39:00,80.3,71.7,29.86,NNW,336,0.0,0.0,75,0.00,,FEW060,0.01,VWS V14.01,2013-09-21 01:39:00,
2013-09-20 21:44:00,80.3,71.3,29.86,NNW,336,0.0,0.0,74,0.00,,FEW060,0.01,VWS V14.01,2013-09-21 01:44:00,
2013-09-20 21:49:00,80.5,71.5,29.86,NNW,336,0.0,0.0,74,0.00,,FEW060,0.01,VWS V14.01,2013-09-21 01:49:00,
2013-09-20 21:54:00,80.3,71.7,29.86,NNW,336,0.0,0.0,75,0.00,,FEW060,0.01,VWS V14.01,2013-09-21 01:54:00,
2013-09-20 21:59:00,80.3,71.3,29.87,NNW,336,0.0,0.0,74,0.00,,FEW060,0.01,VWS V14.01,2013-09-21 01:59:00,
2013-09-20 22:00:00,80.9,71.4,29.85,NNW,336,0.0,0.0,73,0.00,,CLR,0.01,VWS V14.01,2013-09-21 02:00:00,
2013-09-20 22:04:00,80.3,70.9,29.87,NNW,336,0.0,0.0,73,0.00,,OVC070,0.01,VWS V14.01,2013-09-21 02:04:00,
2013-09-20 22:09:00,80.3,70.5,29.87,NNW,336,0.0,0.0,72,0.00,,OVC070,0.01,VWS V14.01,2013-09-21 02:09:00,
2013-09-20 22:14:00,80.3,70.5,29.87,NNW,336,0.0,0.0,72,0.00,,OVC070,0.01,VWS V14.01,2013-09-21 02:14:00,
2013-09-20 22:19:00,80.5,70.2,29.87,NNW,336,0.0,0.0,71,0.00,,OVC070,0.01,VWS V14.01,2013-09-21 02:19:00,
2013-09-20 22:24:00,80.5,69.4,29.87,NNW,339,0.0,0.0,69,0.00,,OVC070,0.01,VWS V14.01,2013-09-21 02:24:00,
2013-09-20 22:29:00,80.7,70.0,29.87,NNW,339,0.0,0.0,70,0.00,,OVC070,0.01,VWS V14.01,2013-09-21 02:29:00,
2013-09-20 22:30:00,80.5,71.8,29.86,NNW,336,0.0,0.0,75,0.00,,CLR,0.01,VWS V14.01,2013-09-21 02:30:00,
2013-09-20 22:34:00,80.7,70.0,29.87,NNW,337,0.0,0.0,70,0.00,,OVC070,0.01,VWS V14.01,2013-09-21 02:34:00,
2013-09-20 22:39:00,80.5,69.4,29.87,NNW,339,0.0,0.0,69,0.00,,OVC070,0.01,VWS V14.01,2013-09-21 02:39:00,
2013-09-20 22:44:00,80.5,69.4,29.87,NNW,339,0.0,0.0,69,0.00,,OVC070,0.01,VWS V14.01,2013-09-21 02:44:00,
2013-09-20 22:49:00,80.3,68.8,29.87,NNW,339,0.0,0.0,68,0.00,,OVC070,0.01,VWS V14.01,2013-09-21 02:49:00,
2013-09-20 22:54:00,80.3,68.8,29.87,NNW,340,0.0,0.0,68,0.00,,OVC070,0.01,VWS V14.01,2013-09-21 02:54:00,
2013-09-20 22:59:00,80.1,68.6,29.87,North,0,0.0,0.0,68,0.00,,OVC070,0.01,VWS V14.01,2013-09-21 02:59:00,
2013-09-20 23:00:00,80.3,71.3,29.87,NNW,336,0.0,0.0,74,0.00,,CLR,0.01,VWS V14.01,2013-09-21 03:00:00,
2013-09-20 23:04:00,80.1,68.6,29.87,North,6,0.0,0.0,68,0.00,,CLR,0.01,VWS V14.01,2013-09-21 03:04:00,
2013-09-20 23:09:00,80.1,68.6,29.87,NE,55,0.0,1.0,68,0.00,,CLR,0.01,VWS V14.01,2013-09-21 03:09:00,
2013-09-20 23:14:00,80.1,68.6,29.87,ENE,72,0.0,2.0,68,0.00,,CLR,0.01,VWS V14.01,2013-09-21 03:14:00,
2013-09-20 23:19:00,79.9,68.4,29.87,ENE,72,0.0,2.0,68,0.00,,CLR,0.01,VWS V14.01,2013-09-21 03:19:00,
2013-09-20 23:24:00,79.8,68.7,29.87,ENE,75,0.0,2.0,69,0.00,,CLR,0.01,VWS V14.01,2013-09-21 03:24:00,
2013-09-20 23:29:00,79.6,68.5,29.87,ENE,75,0.0,0.0,69,0.00,,CLR,0.01,VWS V14.01,2013-09-21 03:29:00,
2013-09-20 23:30:00,80.7,70.0,29.87,NNW,339,0.0,0.0,70,0.00,,CLR,0.01,VWS V14.01,2013-09-21 03:30:00,
2013-09-20 23:34:00,79.4,68.3,29.87,ENE,75,0.0,0.0,69,0.00,,CLR,0.01,VWS V14.01,2013-09-21 03:34:00,
2013-09-20 23:39:00,79.2,68.2,29.87,ENE,75,0.0,0.0,69,0.00,,CLR,0.01,VWS V14.01,2013-09-21 03:39:00,
2013-09-20 23:44:00,79.2,68.6,29.87,ENE,75,0.0,0.0,70,0.00,,CLR,0.01,VWS V14.01,2013-09-21 03:44:00,
2013-09-20 23:49:00,79.0,68.8,29.87,ENE,75,0.0,0.0,71,0.00,,CLR,0.01,VWS V14.01,2013-09-21 03:49:00,
2013-09-20 23:54:00,78.8,68.6,29.87,ENE,76,0.0,0.0,71,0.00,,CLR,0.01,VWS V14.01,2013-09-21 03:54:00,
2013-09-20 23:59:00,78.6,68.8,29.87,ENE,76,0.0,0.0,72,0.00,,CLR,0.00,VWS V14.01,2013-09-21 03:59:00,